createdAt,value
2019-03-12T00:02:20.278Z,1.35
2019-03-12T00:04:49.754Z,1.42
2019-03-12T00:09:48.886Z,1.52
2019-03-12T00:12:18.902Z,1.62
2019-03-12T00:14:48.638Z,1.50
2019-03-12T00:19:48.328Z,1.70
2019-03-12T00:22:18.495Z,1.80
2019-03-12T00:24:48.472Z,1.98
2019-03-12T00:27:18.633Z,1.72
2019-03-12T00:32:17.162Z,1.55
2019-03-12T00:34:47.019Z,1.75
2019-03-12T00:37:16.995Z,1.75
2019-03-12T00:39:46.731Z,1.55
2019-03-12T00:42:16.126Z,1.55
2019-03-12T00:44:45.837Z,1.67
2019-03-12T00:47:15.663Z,1.75
2019-03-12T00:52:14.846Z,1.87
2019-03-12T00:54:44.634Z,1.22
2019-03-12T00:59:42.874Z,1.60
2019-03-12T01:02:12.624Z,1.57
2019-03-12T01:07:12.326Z,1.80
2019-03-12T01:09:42.316Z,1.85
2019-03-12T01:12:12.526Z,1.75
2019-03-12T01:14:42.455Z,2.00
2019-03-12T01:20:04.690Z,1.95
2019-03-12T01:22:34.339Z,1.90
2019-03-12T01:25:04.936Z,1.98
2019-03-12T01:27:34.594Z,2.00
2019-03-12T01:30:05.799Z,1.65
2019-03-12T01:32:35.562Z,1.75
2019-03-12T01:35:06.577Z,2.15
2019-03-12T01:37:36.780Z,1.50
2019-03-12T01:40:09.497Z,2.00
2019-03-12T01:42:40.310Z,1.70
2019-03-12T01:45:13.339Z,1.67
2019-03-12T01:47:43.587Z,1.52
2019-03-12T01:52:44.148Z,1.70
2019-03-12T01:55:16.609Z,1.80
2019-03-12T02:00:17.024Z,1.80
2019-03-12T02:02:48.789Z,1.82
2019-03-12T02:05:20.323Z,1.70
2019-03-12T02:07:50.973Z,2.47
2019-03-12T02:10:21.543Z,2.00
2019-03-12T02:12:51.845Z,1.80
2019-03-12T02:15:22.546Z,1.82
2019-03-12T02:17:52.907Z,2.10
2019-03-12T02:20:24.174Z,2.15
2019-03-12T02:22:54.178Z,2.05
2019-03-12T02:25:24.147Z,1.90
2019-03-12T02:27:54.514Z,2.00
2019-03-12T02:30:24.426Z,2.00
2019-03-12T02:32:54.355Z,1.82
2019-03-12T02:35:24.906Z,1.65
2019-03-12T02:37:54.659Z,1.90
2019-03-12T02:45:25.134Z,1.80
2019-03-12T02:47:55.738Z,1.70
2019-03-12T02:50:26.107Z,2.00
2019-03-12T02:52:56.349Z,1.72
2019-03-12T02:55:26.564Z,1.90
2019-03-12T02:57:55.901Z,1.82
2019-03-12T03:00:25.961Z,2.10
2019-03-12T03:02:55.884Z,1.92
2019-03-12T03:05:25.750Z,1.70
2019-03-12T03:08:01.638Z,2.02
2019-03-12T03:13:01.585Z,2.27
2019-03-12T03:15:42.550Z,1.80
2019-03-12T03:18:12.685Z,1.95
2019-03-12T03:20:42.860Z,1.90
2019-03-12T03:23:14.119Z,1.47
2019-03-12T03:25:44.013Z,1.60
2019-03-12T03:28:15.968Z,1.80
2019-03-12T03:30:45.901Z,1.70
2019-03-12T03:33:15.871Z,1.67
2019-03-12T03:35:45.831Z,1.80
2019-03-12T03:38:15.576Z,1.80
2019-03-12T03:43:15.319Z,2.00
2019-03-12T03:45:45.116Z,2.27
2019-03-12T03:48:14.938Z,1.70
2019-03-12T03:50:45.080Z,1.87
2019-03-12T03:53:15.069Z,1.90
2019-03-12T03:55:45.528Z,2.00
2019-03-12T04:00:44.647Z,1.95
2019-03-12T04:05:44.756Z,1.95
2019-03-12T04:08:14.682Z,2.05
2019-03-12T04:10:44.491Z,1.90
2019-03-12T04:13:14.485Z,1.40
2019-03-12T04:15:44.319Z,1.62
2019-03-12T04:18:14.169Z,1.60
2019-03-12T04:20:44.058Z,2.10
2019-03-12T04:23:16.011Z,2.00
2019-03-12T04:34:27.314Z,1.85
2019-03-12T04:36:57.135Z,1.82
2019-03-12T04:39:27.002Z,2.22
2019-03-12T04:41:56.565Z,2.02
2019-03-12T04:44:26.017Z,1.95
2019-03-12T04:46:56.146Z,1.90
2019-03-12T04:49:26.303Z,1.90
2019-03-12T04:51:56.137Z,2.37
2019-03-12T04:54:25.801Z,1.77
2019-03-12T04:56:55.544Z,2.02
2019-03-12T04:59:24.787Z,2.22
2019-03-12T05:01:54.873Z,2.00
2019-03-12T05:04:24.631Z,2.08
2019-03-12T05:06:55.702Z,1.90
2019-03-12T05:09:26.808Z,2.05
2019-03-12T05:11:57.592Z,2.30
2019-03-12T05:14:34.699Z,2.35
2019-03-12T05:17:35.102Z,2.00
2019-03-12T05:20:10.978Z,2.35
2019-03-12T05:22:42.531Z,2.12
2019-03-12T05:25:14.040Z,2.12
2019-03-12T05:27:47.388Z,2.00
2019-03-12T05:30:20.520Z,2.50
2019-03-12T05:32:51.024Z,2.80
2019-03-12T05:35:22.065Z,2.25
2019-03-12T05:37:53.152Z,2.08
2019-03-12T05:40:24.877Z,2.12
2019-03-12T05:42:55.046Z,2.22
2019-03-12T05:45:26.318Z,2.22
2019-03-12T05:47:58.813Z,4.12
2019-03-12T05:50:30.862Z,1.95
2019-03-12T05:53:15.591Z,2.30
2019-03-12T05:55:47.475Z,1.70
2019-03-12T05:58:19.846Z,2.67
2019-03-12T06:00:51.718Z,2.25
2019-03-12T06:03:22.327Z,2.70
2019-03-12T06:05:53.534Z,2.27
2019-03-12T06:08:24.116Z,1.95
2019-03-12T06:10:55.320Z,2.35
2019-03-12T06:13:27.531Z,2.08
2019-03-12T06:16:00.162Z,2.33
2019-03-12T06:18:31.051Z,2.15
2019-03-12T06:21:02.454Z,2.12
2019-03-12T06:23:33.340Z,2.67
2019-03-12T06:26:06.344Z,2.10
2019-03-12T06:28:38.449Z,2.30
2019-03-12T06:31:27.903Z,2.20
2019-03-12T06:34:05.340Z,1.90
2019-03-12T06:42:36.785Z,2.42
2019-03-12T06:45:21.402Z,2.30
2019-03-12T06:48:13.980Z,2.20
2019-03-12T06:51:01.895Z,2.75
2019-03-12T06:53:50.043Z,2.17
2019-03-12T06:56:48.858Z,1.98
2019-03-12T06:59:41.412Z,2.22
2019-03-12T07:02:40.508Z,2.05
2019-03-12T07:05:44.823Z,1.98
2019-03-12T07:08:32.788Z,1.87
2019-03-12T07:11:22.544Z,2.20
2019-03-12T07:14:04.218Z,1.90
2019-03-12T07:17:10.631Z,2.25
2019-03-12T07:22:46.498Z,1.67
2019-03-12T07:28:13.541Z,2.37
2019-03-12T07:31:01.665Z,2.42
2019-03-12T07:33:51.051Z,2.22
2019-03-12T07:36:40.425Z,2.00
2019-03-12T07:39:28.594Z,2.33
2019-03-12T07:45:08.458Z,2.40
2019-03-12T07:47:55.059Z,2.40
2019-03-12T07:50:45.862Z,2.10
2019-03-12T07:53:35.498Z,1.65
2019-03-12T07:59:18.556Z,1.80
2019-03-12T08:02:07.372Z,2.25
2019-03-12T08:05:01.088Z,2.02
2019-03-12T08:07:50.512Z,1.80
2019-03-12T08:10:34.425Z,1.98
2019-03-12T08:13:23.897Z,2.10
2019-03-12T08:16:23.496Z,2.20
2019-03-12T08:21:59.071Z,1.98
2019-03-12T08:24:36.537Z,1.80
2019-03-12T08:30:28.724Z,1.57
2019-03-12T08:33:18.109Z,1.80
2019-03-12T08:35:54.008Z,1.70
2019-03-12T08:38:30.452Z,2.75
2019-03-12T08:41:15.141Z,1.90
2019-03-12T08:44:00.330Z,1.67
2019-03-12T08:46:49.509Z,1.75
2019-03-12T08:52:25.098Z,2.20
2019-03-12T08:55:20.945Z,2.15
2019-03-12T08:58:13.990Z,2.00
2019-03-12T09:01:02.127Z,1.90
2019-03-12T09:04:00.710Z,1.80
2019-03-12T09:06:41.083Z,1.75
2019-03-12T09:09:39.868Z,2.10
2019-03-12T09:12:38.551Z,2.17
2019-03-12T09:15:27.743Z,2.08
2019-03-12T09:18:35.705Z,2.00
2019-03-12T09:21:43.516Z,2.02
2019-03-12T09:24:35.040Z,1.70
2019-03-12T09:27:38.134Z,1.70
2019-03-12T09:30:39.848Z,1.77
2019-03-12T09:33:13.656Z,1.85
2019-03-12T09:36:21.682Z,1.42
2019-03-12T09:39:05.488Z,1.70
2019-03-12T09:41:59.824Z,1.80
2019-03-12T09:44:46.519Z,1.80
2019-03-12T09:47:38.631Z,1.65
2019-03-12T09:50:28.778Z,1.60
2019-03-12T09:53:14.664Z,1.95
2019-03-12T09:56:10.615Z,1.60
2019-03-12T10:02:02.035Z,1.42
2019-03-12T10:05:09.813Z,1.70
2019-03-12T10:08:08.778Z,1.82
2019-03-12T10:10:53.757Z,1.57
2019-03-12T10:13:41.840Z,1.40
2019-03-12T10:16:43.811Z,1.80
2019-03-12T10:19:31.984Z,1.57
2019-03-12T10:22:25.779Z,2.15
2019-03-12T10:25:28.545Z,1.40
2019-03-12T10:28:13.950Z,1.40
2019-03-12T10:30:53.545Z,1.60
2019-03-12T10:33:49.310Z,1.55
2019-03-12T10:36:38.537Z,1.40
2019-03-12T10:43:03.646Z,1.35
2019-03-12T10:48:22.448Z,1.50
2019-03-12T10:50:53.325Z,1.80
2019-03-12T10:53:23.603Z,1.50
2019-03-12T10:58:23.351Z,1.45
2019-03-12T11:00:53.092Z,1.47
2019-03-12T11:03:23.445Z,1.50
2019-03-12T11:05:53.518Z,1.40
2019-03-12T11:10:53.171Z,1.42
2019-03-12T11:13:23.156Z,1.50
2019-03-12T11:15:54.657Z,1.40
2019-03-12T11:18:25.038Z,1.50
2019-03-12T11:20:55.182Z,1.60
2019-03-12T11:23:25.505Z,1.82
2019-03-12T11:25:55.919Z,1.95
2019-03-12T11:28:26.891Z,1.32
2019-03-12T11:30:57.108Z,2.00
2019-03-12T11:33:26.821Z,1.22
2019-03-12T11:35:56.695Z,1.35
2019-03-12T11:38:27.318Z,1.62
2019-03-12T11:40:57.352Z,1.55
2019-03-12T11:43:27.387Z,1.57
2019-03-12T11:45:57.884Z,0.90
2019-03-12T11:48:27.607Z,1.15
2019-03-12T11:53:26.778Z,1.10
2019-03-12T11:55:56.743Z,1.00
2019-03-12T11:58:27.071Z,1.10
2019-03-12T12:01:02.571Z,1.15
2019-03-12T12:03:33.155Z,1.07
2019-03-12T12:06:04.395Z,0.98
2019-03-12T12:08:34.848Z,1.05
2019-03-12T12:11:05.137Z,1.22
2019-03-12T12:13:37.850Z,0.95
2019-03-12T12:16:07.852Z,1.10
2019-03-12T12:18:38.221Z,1.10
2019-03-12T12:21:08.035Z,1.20
2019-03-12T12:23:37.511Z,1.30
2019-03-12T12:26:07.484Z,1.20
2019-03-12T12:28:37.668Z,1.00
2019-03-12T12:31:08.951Z,1.00
2019-03-12T12:33:39.515Z,1.22
2019-03-12T12:36:09.798Z,0.80
2019-03-12T12:38:39.825Z,1.27
2019-03-12T12:41:09.944Z,1.02
2019-03-12T12:43:39.572Z,1.10
2019-03-12T12:46:09.439Z,1.80
2019-03-12T12:48:41.141Z,0.80
2019-03-12T12:51:11.994Z,0.93
2019-03-12T12:53:42.873Z,0.93
2019-03-12T12:56:13.428Z,1.10
2019-03-12T12:58:43.167Z,1.07
2019-03-12T13:01:18.147Z,1.02
2019-03-12T13:03:48.620Z,1.02
2019-03-12T13:06:19.775Z,1.00
2019-03-12T13:08:50.623Z,1.40
2019-03-12T13:11:21.314Z,1.50
2019-03-12T13:13:51.448Z,1.50
2019-03-12T13:16:25.411Z,1.30
2019-03-12T13:21:24.312Z,1.57
2019-03-12T13:23:55.321Z,1.25
2019-03-12T13:26:25.598Z,1.50
2019-03-12T13:31:26.829Z,1.50
2019-03-12T13:33:59.666Z,1.50
2019-03-12T13:36:30.358Z,1.60
2019-03-12T13:39:00.599Z,1.55
2019-03-12T13:43:59.550Z,1.80
2019-03-12T13:48:58.964Z,1.92
2019-03-12T13:51:29.501Z,1.90
2019-03-12T13:53:59.501Z,1.47
2019-03-12T13:58:58.430Z,1.35
2019-03-12T14:01:28.736Z,1.75
2019-03-12T14:04:10.070Z,1.85
2019-03-12T14:06:30.909Z,1.42
2019-03-12T14:09:00.983Z,1.57
2019-03-12T14:11:32.902Z,2.00
2019-03-12T14:14:02.644Z,2.08
2019-03-12T14:16:32.945Z,1.67
2019-03-12T14:19:03.503Z,1.60
2019-03-12T14:21:42.707Z,1.72
2019-03-12T14:24:14.057Z,3.52
2019-03-12T14:26:45.529Z,3.98
2019-03-12T14:29:16.061Z,1.60
2019-03-12T14:31:47.700Z,1.50
2019-03-12T14:34:20.533Z,1.40
2019-03-12T14:36:51.690Z,1.37
2019-03-12T14:39:23.576Z,1.72
2019-03-12T14:44:25.410Z,1.65
2019-03-12T14:46:56.496Z,1.60
2019-03-12T14:49:27.439Z,1.65
2019-03-12T14:52:28.465Z,1.60
2019-03-12T14:54:58.666Z,1.37
2019-03-12T14:57:28.736Z,1.40
2019-03-12T15:00:00.484Z,1.37
2019-03-12T15:05:01.949Z,1.60
2019-03-12T15:07:32.515Z,1.50
2019-03-12T15:12:03.526Z,1.57
2019-03-12T15:14:33.478Z,1.10
2019-03-12T15:22:02.547Z,1.27
2019-03-12T15:24:36.024Z,1.40
2019-03-12T15:27:05.919Z,1.25
2019-03-12T15:29:40.000Z,1.35
2019-03-12T15:32:13.305Z,1.55
2019-03-12T15:34:43.725Z,1.47
2019-03-12T15:37:14.876Z,1.40
2019-03-12T15:39:45.352Z,1.00
2019-03-12T15:42:16.172Z,1.50
2019-03-12T15:44:46.352Z,1.40
2019-03-12T15:47:16.685Z,1.30
2019-03-12T15:49:47.056Z,1.37
2019-03-12T15:52:17.676Z,1.20
2019-03-12T15:54:47.591Z,1.30
2019-03-12T15:59:47.463Z,1.62
2019-03-12T16:02:17.500Z,1.30
2019-03-12T16:07:17.848Z,1.17
2019-03-12T16:09:47.723Z,1.20
2019-03-12T16:14:49.502Z,1.30
2019-03-12T16:17:19.611Z,1.35
2019-03-12T16:22:19.317Z,1.15
2019-03-12T16:24:49.516Z,1.52
2019-03-12T16:29:50.537Z,1.92
2019-03-12T16:34:51.940Z,1.40
2019-03-12T16:37:28.347Z,1.17
2019-03-12T16:39:58.640Z,1.20
2019-03-12T16:42:34.948Z,1.50
2019-03-12T16:45:01.016Z,1.50
2019-03-12T16:47:32.316Z,1.55
2019-03-12T16:50:02.599Z,1.60
2019-03-12T16:52:33.579Z,1.30
2019-03-12T16:57:33.681Z,1.75
2019-03-12T17:02:37.515Z,1.30
2019-03-12T17:07:37.203Z,1.40
2019-03-12T17:10:09.802Z,1.02
2019-03-12T17:12:40.640Z,1.45
2019-03-12T17:17:42.659Z,1.40
2019-03-12T17:20:13.317Z,1.70
2019-03-12T17:22:43.566Z,1.77
2019-03-12T17:25:14.558Z,1.40
2019-03-12T17:30:17.740Z,1.22
2019-03-12T17:32:47.839Z,1.15
2019-03-12T17:35:23.357Z,1.15
2019-03-12T17:37:53.521Z,1.50
2019-03-12T17:45:25.013Z,1.42
2019-03-12T17:47:55.765Z,1.80
2019-03-12T17:50:25.878Z,1.77
2019-03-12T17:52:56.315Z,1.72
2019-03-12T17:55:27.165Z,1.67
2019-03-12T17:57:59.627Z,1.85
2019-03-12T18:00:30.981Z,1.95
2019-03-12T18:03:01.479Z,1.77
2019-03-12T18:05:31.326Z,1.70
2019-03-12T18:08:04.822Z,1.67
2019-03-12T18:10:34.600Z,1.70
2019-03-12T18:15:33.866Z,1.87
2019-03-12T18:18:04.133Z,2.33
2019-03-12T18:20:34.542Z,2.15
2019-03-12T18:23:04.611Z,2.37
2019-03-12T18:28:04.035Z,2.72
2019-03-12T18:30:34.362Z,2.20
2019-03-12T18:33:04.983Z,1.85
2019-03-12T18:35:35.632Z,1.90
2019-03-12T18:40:35.165Z,1.85
2019-03-12T18:43:05.161Z,1.70
2019-03-12T18:45:35.535Z,2.30
2019-03-12T18:50:35.189Z,2.10
2019-03-12T18:53:05.372Z,1.95
2019-03-12T18:56:09.548Z,2.00
2019-03-12T18:58:39.755Z,2.00
2019-03-12T19:01:15.381Z,2.17
2019-03-12T19:03:45.971Z,2.55
2019-03-12T19:06:15.880Z,2.70
2019-03-12T19:08:48.169Z,2.80
2019-03-12T19:11:19.072Z,2.83
2019-03-12T19:13:49.622Z,3.00
2019-03-12T19:18:48.758Z,2.70
2019-03-12T19:21:18.931Z,2.90
2019-03-12T19:23:54.365Z,3.20
2019-03-12T19:26:24.862Z,2.90
2019-03-12T19:28:54.684Z,2.65
2019-03-12T19:31:41.962Z,2.70
2019-03-12T19:34:16.527Z,2.87
2019-03-12T19:36:46.557Z,2.95
2019-03-12T19:44:18.496Z,2.87
2019-03-12T19:46:49.233Z,2.77
2019-03-12T19:49:19.400Z,3.50
2019-03-12T19:51:51.543Z,3.30
2019-03-12T19:56:51.713Z,3.33
2019-03-12T19:59:22.169Z,4.10
2019-03-12T20:01:59.401Z,3.75
2019-03-12T20:04:29.655Z,3.10
2019-03-12T20:07:00.018Z,3.37
2019-03-12T20:10:54.803Z,3.95
2019-03-12T20:14:37.940Z,3.50
2019-03-12T20:19:01.325Z,2.52
2019-03-12T20:22:41.626Z,2.92
2019-03-12T20:26:34.602Z,2.80
2019-03-12T20:34:28.589Z,3.00
2019-03-12T20:42:01.339Z,2.87
2019-03-12T20:45:53.506Z,2.60
2019-03-12T20:49:34.333Z,2.52
2019-03-12T20:53:22.487Z,2.12
2019-03-12T20:57:35.879Z,1.87
2019-03-12T21:01:39.091Z,2.00
2019-03-12T21:05:40.373Z,2.50
2019-03-12T21:09:40.747Z,2.70
2019-03-12T21:13:40.555Z,2.30
2019-03-12T21:21:28.068Z,3.00
2019-03-12T21:24:53.549Z,2.85
2019-03-12T21:30:59.561Z,3.20
2019-03-12T21:33:30.337Z,3.40
2019-03-12T21:36:02.566Z,3.47
2019-03-12T21:38:34.097Z,3.77
2019-03-12T21:41:05.049Z,3.70
2019-03-12T21:43:35.517Z,3.45
2019-03-12T21:46:07.963Z,3.47
2019-03-12T21:48:39.616Z,3.30
2019-03-12T21:51:10.781Z,2.70
2019-03-12T21:53:41.804Z,3.30
2019-03-12T21:56:12.840Z,2.90
2019-03-12T21:58:43.601Z,3.10
2019-03-12T22:01:17.691Z,3.05
2019-03-12T22:03:48.084Z,3.52
2019-03-12T22:06:20.582Z,3.20
2019-03-12T22:11:20.088Z,3.62
2019-03-12T22:13:50.325Z,3.52
2019-03-12T22:16:20.476Z,3.22
2019-03-12T22:18:50.530Z,2.77
2019-03-12T22:21:25.678Z,2.98
2019-03-12T22:23:58.034Z,3.58
2019-03-12T22:26:28.620Z,4.08
2019-03-12T22:31:28.321Z,4.40
2019-03-12T22:33:58.739Z,3.80
2019-03-12T22:38:59.346Z,4.20
2019-03-12T22:41:29.550Z,3.87
2019-03-12T22:46:28.476Z,3.22
2019-03-12T22:48:58.594Z,3.30
2019-03-12T22:53:57.684Z,3.22
2019-03-12T22:56:27.809Z,2.90
2019-03-12T22:58:58.171Z,3.15
2019-03-12T23:01:47.324Z,3.30
2019-03-12T23:04:36.121Z,2.83
2019-03-12T23:07:24.825Z,3.02
2019-03-12T23:12:27.803Z,3.20
2019-03-12T23:17:30.481Z,2.87
2019-03-12T23:20:00.666Z,3.15
2019-03-12T23:22:31.149Z,3.42
2019-03-12T23:25:02.144Z,3.67
2019-03-12T23:27:34.325Z,3.77
2019-03-12T23:30:06.640Z,4.30
2019-03-12T23:32:38.497Z,3.58
2019-03-12T23:35:08.879Z,4.42
2019-03-12T23:37:38.891Z,4.47
2019-03-12T23:40:09.678Z,2.85
2019-03-12T23:42:39.582Z,2.70
2019-03-12T23:47:38.814Z,1.42
2019-03-12T23:50:09.622Z,1.22
2019-03-12T23:52:39.522Z,1.17
2019-03-12T23:55:09.684Z,0.93
2019-03-12T23:57:39.353Z,1.20
